logo
App data

Zack Zero

Zack Zero takes you on an action-packed platform adventure with incredible 3D graphics and the playability and entertainment of classic 2D games. Help Zack Zero save his beloved Marlene, kidnapped by the evil Zulrog in an effort to obtain the powerful substance that will allow him to travel back in time.
Store | Hub | SteamDB | Site
Developer: Crocodile Entertainment Publisher: Crocodile Entertainment
Genre: Action, Adventure, Indie
Languages: English, German, French, Italian, Spanish - Spain
Tags: Indie (35), Action (34), Adventure (32), Platformer (27), Singleplayer (6), Side Scroller (5)
Category: Single-player, Full controller support, Steam Trading Cards
Release date: Apr 29, 2013
Price: $2.99
Old userscore: 64% Owners: 50,000 .. 100,000
Followers: 292
Peak concurrent players yesterday: 1
Playtime total: 02:16 (average) 03:09 (median)

Steam Spy is still in beta, so expect major bugs.

Owners data:

Access restricted.

This feature is only available to users with special access rights. Sorry.

If you want to proceed, you need to register or log in first and then back Steam Spy on Patreon. Look for Indie or Pro pledge.

Don't forget to use the same email as on Steam Spy!

Audience in 2 weeks:

Access restricted.

This feature is only available to users with special access rights. Sorry.

If you want to proceed, you need to register or log in first and then back Steam Spy on Patreon. Look for Indie or Pro pledge.

Don't forget to use the same email as on Steam Spy!

Peak daily concurrent players:

CCU data courtesy of SteamDB. Used with permission.

Hourly concurrent players:

Daily Twitch stats:

Hourly Twitch stats:

Followers over time

Access restricted.

This feature is only available to users with special access rights. Sorry.

If you want to proceed, you need to register or log in first and then back Steam Spy on Patreon. Look for Indie or Pro pledge.

Don't forget to use the same email as on Steam Spy!

Views for top 50 videos on YouTube for this game:

Games similar to this one:

# Game Release date
Price
Score rank
(Userscore / Metascore)
Owners
Players
Playtime (Median)
1 Aviary Attorney Dec 21, 2015 $14.99N/A (N/A/77%)50,000 .. 100,0000%00:00 (00:00)
2 Moonbase 332 Sep 18, 2015 $4.99N/A (N/A)20,000 .. 50,0000%00:00 (00:00)
3 none Nov 4, 2015 N/AN/A (N/A)20,000 .. 50,0000%00:00 (00:00)
4 Kitchen Simulator 2015 Sep 2, 2015 $0.99N/A (N/A)50,000 .. 100,0000%00:00 (00:00)
5 Earth Overclocked Dec 4, 2015 $4.99N/A (N/A)20,000 .. 50,0000%00:00 (00:00)
6 ChargeShot Sep 18, 2015 $9.99N/A (N/A)0 .. 20,0000%00:00 (00:00)
7 iZBOT Sep 1, 2015 $11.99N/A (N/A)0 .. 20,0000%00:00 (00:00)
8 Press X to Not Die Oct 6, 2017 $2.99N/A (N/A)50,000 .. 100,0000%00:00 (00:00)
9 Redemption: Eternal Quest Aug 28, 2015 $1.99N/A (N/A)100,000 .. 200,0000%00:00 (00:00)
10 1,000 Heads Among the Trees Dec 11, 2015 $4.99N/A (N/A)100,000 .. 200,0000%00:00 (00:00)
11 Void Invaders Aug 14, 2015 $2.99N/A (N/A)20,000 .. 50,0000%00:00 (00:00)
12 The Purring Quest Nov 12, 2015 $9.99N/A (N/A)50,000 .. 100,0000%00:00 (00:00)
13 Blaster Shooter GunGuy! Aug 10, 2015 $1.99N/A (N/A)100,000 .. 200,0000%00:00 (00:00)
14 Perraw - FPS Clone War Alpha Jan 29, 2016 $0.99N/A (N/A)0 .. 20,0000%00:00 (00:00)
15 Wild Island Quest Sep 4, 2015 $1.99N/A (N/A)50,000 .. 100,0000%00:00 (00:00)
16 Morphine Oct 28, 2015 $2.99N/A (N/A)50,000 .. 100,0000%00:00 (00:00)
17 Shmadow Nov 3, 2015 $1.99N/A (N/A)20,000 .. 50,0000%00:00 (00:00)
18 T.E.C. 3001 Apr 11, 2014 N/AN/A (N/A)20,000 .. 50,0000%00:00 (00:00)
19 Full Bore May 6, 2014 $14.99N/A (N/A/72%)20,000 .. 50,0000%00:00 (00:00)
20 Munin Jun 10, 2014 $4.99N/A (N/A/68%)100,000 .. 200,0000%00:00 (00:00)
21 Imagine Me Dec 9, 2014 $2.99N/A (N/A)50,000 .. 100,0000%00:00 (00:00)
22 Warring States Jan 29, 2018 $18.99N/A (N/A)0 .. 20,0000%00:00 (00:00)
23 Montas Mar 24, 2014 $9.99N/A (N/A)20,000 .. 50,0000%00:00 (00:00)
24 Rabbit Hole 3D: Steam Edition Apr 25, 2014 $2.99N/A (N/A)50,000 .. 100,0000%00:00 (00:00)
25 10 Second Ninja Mar 5, 2014 $1.99N/A (N/A/72%)50,000 .. 100,0000%00:00 (00:00)
26 ReignMaker Apr 16, 2014 $14.99N/A (N/A)50,000 .. 100,0000%00:00 (00:00)
27 Dwelvers Sep 11, 2014 $14.99N/A (N/A)0 .. 20,0000%00:00 (00:00)
28 Autocraft Sep 20, 2017 $9.99N/A (N/A)20,000 .. 50,0000%00:00 (00:00)
29 Labyrinthine Dreams May 26, 2015 $0.49N/A (N/A)50,000 .. 100,0000%00:00 (00:00)
30 Actual Sunlight Apr 3, 2014 $4.99N/A (N/A/77%)20,000 .. 50,0000%00:00 (00:00)
31 Pulstar Jun 11, 2014 $1.99N/A (N/A)20,000 .. 50,0000%00:00 (00:00)
32 Volt Apr 14, 2014 $0.99N/A (N/A)50,000 .. 100,0000%00:00 (00:00)
33 Imagine Earth May 2014 $19.99N/A (N/A)20,000 .. 50,0000%00:00 (00:00)
34 STARWHAL Sep 29, 2014 $11.99N/A (N/A)50,000 .. 100,0000%00:00 (00:00)
35 Days Under Custody Nov 23, 2015 $4.99N/A (N/A)20,000 .. 50,0000%00:00 (00:00)
36 Mindless Running Feb 22, 2016 $0.99N/A (N/A)50,000 .. 100,0000%00:00 (00:00)
37 Godus Wars Feb 3, 2016 $14.99N/A (N/A)50,000 .. 100,0000%00:00 (00:00)
38 Hero Quest: Tower Conflict Apr 13, 2016 $0.99N/A (N/A)200,000 .. 500,0000%00:00 (00:00)
39 Bell Ringer Mar 6, 2016 $6.99N/A (N/A)200,000 .. 500,0000%00:00 (00:00)
40 CrazyCars3D Mar 28, 2016 $2.99N/A (N/A)50,000 .. 100,0000%00:00 (00:00)
41 Space Moth DX Jan 22, 2016 $4.99N/A (N/A)20,000 .. 50,0000%00:00 (00:00)
42 Mainlining Jan 26, 2017 $12.99N/A (N/A/73%)20,000 .. 50,0000%00:00 (00:00)
43 PERFECT ANGLE: The puzzle game based on optical illusions Dec 22, 2015 $9.99N/A (N/A)50,000 .. 100,0000%00:00 (00:00)
44 StarsOne Apr 8, 2016 $9.99N/A (N/A)20,000 .. 50,0000%00:00 (00:00)
45 Doodle Kingdom Jun 9, 2016 $8.99N/A (N/A)20,000 .. 50,0000%00:00 (00:00)
46 Domino Sky Apr 5, 2016 $3.99N/A (N/A)50,000 .. 100,0000%00:00 (00:00)
47 Evertown Jan 30, 2020 $1.99N/A (N/A)0 .. 20,0000%00:00 (00:00)
48 OPUS: The Day We Found Earth Apr 21, 2016 $8.99N/A (N/A)50,000 .. 100,0000%00:00 (00:00)
49 10 Second Ninja X Jul 19, 2016 $9.99N/A (N/A)20,000 .. 50,0000%00:00 (00:00)
50 Blade Ballet Aug 9, 2016 $14.99N/A (N/A)0 .. 20,0000%00:00 (00:00)
51 Empire of the Gods May 13, 2008 $1.99N/A (N/A)20,000 .. 50,0000%00:00 (00:00)
52 Frederic: Evil Strikes Back May 23, 2014 $7.99N/A (N/A)100,000 .. 200,0000%00:00 (00:00)
53 Three Dead Zed Jul 7, 2014 $5.99N/A (N/A)50,000 .. 100,0000%00:00 (00:00)
54 Rhythm Destruction Jun 16, 2014 $4.99N/A (N/A)50,000 .. 100,0000%00:00 (00:00)
55 Starship Corporation May 3, 2018 $4.99N/A (N/A)50,000 .. 100,0000%00:00 (00:00)
56 Boson X Sep 15, 2014 $2.99N/A (N/A)50,000 .. 100,0000%00:00 (00:00)
57 Uriel's Chasm Sep 12, 2014 $4.99N/A (N/A)200,000 .. 500,0000%00:00 (00:00)
58 Concursion Jun 6, 2014 $4.99N/A (N/A/66%)20,000 .. 50,0000%00:00 (00:00)
59 Cosmochoria Apr 27, 2015 $9.99N/A (N/A)20,000 .. 50,0000%00:00 (00:00)
60 Echo of the Wilds Jun 10, 2014 $8.99N/A (N/A)20,000 .. 50,0000%00:00 (00:00)
61 Road Not Taken Aug 5, 2014 $14.99N/A (N/A/75%)50,000 .. 100,0000%00:00 (00:00)
62 POP: Methodology Experiment One Dec 10, 2014 $3.99N/A (N/A)0 .. 20,0000%00:00 (00:00)
63 Pivvot Jul 14, 2014 $4.99N/A (N/A)0 .. 20,0000%00:00 (00:00)
64 Fancy Skulls Jun 16, 2014 $8.99N/A (N/A)50,000 .. 100,0000%00:00 (00:00)
65 Dreaming Sarah Mar 12, 2015 $0.59N/A (N/A)100,000 .. 200,0000%00:00 (00:00)
66 Curses 'N Chaos Aug 18, 2015 $9.99N/A (N/A)20,000 .. 50,0000%00:00 (00:00)
67 Frederic: Resurrection of Music May 16, 2014 $2.99N/A (N/A)100,000 .. 200,0000%00:00 (00:00)
68 Slip Apr 28, 2014 $0.99N/A (N/A)20,000 .. 50,0000%00:00 (00:00)
69 Dashy Square Apr 26, 2016 $2.99N/A (N/A)0 .. 20,0000%00:00 (00:00)
70 DashBored Jun 13, 2016 $4.99N/A (N/A)20,000 .. 50,0000%00:00 (00:00)
71 NORTH Apr 27, 2016 $0.59N/A (N/A)200,000 .. 500,0000%00:00 (00:00)
72 Robot Legions Reborn Jul 19, 2016 $1.49N/A (N/A)20,000 .. 50,0000%00:00 (00:00)
73 New Retro Arcade: Neon Nov 19, 2019 $19.99N/A (N/A)20,000 .. 50,0000%00:00 (00:00)
74 Bohemian Killing Jul 21, 2016 $12.99N/A (N/A/55%)0 .. 20,0000%00:00 (00:00)
75 Scanner Sombre Apr 26, 2017 $5.99N/A (N/A/67%)100,000 .. 200,0000%00:00 (00:00)
76 You Deserve Aug 19, 2016 $0.99N/A (N/A)20,000 .. 50,0000%00:00 (00:00)
77 ORCS May 20, 2016 $1.99N/A (N/A)20,000 .. 50,0000%00:00 (00:00)
78 Dinosaur Forest May 17, 2017 $1.99N/A (N/A)100,000 .. 200,0000%00:00 (00:00)
79 Star Drifter Jun 1, 2016 $0.99N/A (N/A)200,000 .. 500,0000%00:00 (00:00)
80 Joana's Life Sep 1, 2016 $5.99N/A (N/A)50,000 .. 100,0000%00:00 (00:00)
81 Call Of The Mighty Warriors Mar 1, 2019 $0.49N/A (N/A)20,000 .. 50,0000%00:00 (00:00)
82 It Comes Around - A Kinetic Novel Sep 29, 2016 $2.99N/A (N/A)20,000 .. 50,0000%00:00 (00:00)
83 Karma Miwa Aug 12, 2016 $0.99N/A (N/A)20,000 .. 50,0000%00:00 (00:00)
84 Starship Annihilator Sep 2, 2016 $0.99N/A (N/A)100,000 .. 200,0000%00:00 (00:00)
85 Super Duper Party Pooper Jun 6, 2016 $0.99N/A (N/A/40%)100,000 .. 200,0000%00:00 (00:00)
86 Ninja Pizza Girl Sep 30, 2015 $6.99N/A (N/A/82%)50,000 .. 100,0000%00:00 (00:00)
87 Heroes Rise: HeroFall Jul 11, 2014 $3.99N/A (N/A)0 .. 20,0000%00:00 (00:00)
88 Horizon Shift May 29, 2015 $4.99N/A (N/A)200,000 .. 500,0000%00:00 (00:00)
89 OTTTD Aug 6, 2014 $7.99N/A (N/A)50,000 .. 100,0000%00:00 (00:00)
90 Traverser Jul 9, 2015 $14.99N/A (N/A/61%)0 .. 20,0000%00:00 (00:00)
91 The Masterplan Jun 4, 2015 $19.99N/A (N/A/68%)100,000 .. 200,0000%00:00 (00:00)
92 The Deer God Feb 27, 2015 $14.99N/A (N/A/59%)20,000 .. 50,0000%00:00 (00:00)
93 Amazing Princess Sarah Aug 18, 2014 $4.99N/A (N/A)0 .. 20,0000%00:00 (00:00)
94 Pix the Cat Jan 29, 2015 $9.99N/A (N/A/77%)50,000 .. 100,0000%00:00 (00:00)
95 Velocibox Sep 8, 2014 $4.99N/A (N/A)50,000 .. 100,0000%00:00 (00:00)
96 Phoenix Force Nov 13, 2014 $3.99N/A (N/A)50,000 .. 100,0000%00:00 (00:00)
97 Squishy the Suicidal Pig Oct 23, 2014 $5.99N/A (N/A)200,000 .. 500,0000%00:00 (00:00)
98 Marvin's Mittens Dec 17, 2014 $5.99N/A (N/A)0 .. 20,0000%00:00 (00:00)
99 Great Permutator Sep 15, 2014 $6.99N/A (N/A)20,000 .. 50,0000%00:00 (00:00)
100 A Druid's Duel Feb 25, 2015 $7.99N/A (N/A/70%)20,000 .. 50,0000%00:00 (00:00)
101 Chariot Nov 12, 2014 $14.99N/A (N/A/76%)50,000 .. 100,0000%00:00 (00:00)
102 Back to Bed Aug 6, 2014 $5.99N/A (N/A)1,000,000 .. 2,000,0000%00:00 (00:00)
103 BIT.TRIP BEAT Nov 2, 2010 $9.99N/A (N/A)200,000 .. 500,0000%00:00 (00:00)
104 Home Aug 31, 2012 $4.99N/A (N/A/69%)200,000 .. 500,0000%00:00 (00:00)
105 Super Splatters Jun 26, 2013 N/AN/A (N/A/73%)100,000 .. 200,0000%00:00 (00:00)
106 Ultratron Mar 18, 2013 $9.99N/A (N/A)100,000 .. 200,0000%00:00 (00:00)
107 Ms. Splosion Man Apr 3, 2013 $9.99N/A (N/A)50,000 .. 100,0000%00:00 (00:00)
108 Cargo Commander Nov 1, 2012 $2.99N/A (N/A)100,000 .. 200,0000%00:00 (00:00)
109 SOL: Exodus Jan 25, 2012 $7.99N/A (N/A/57%)50,000 .. 100,0000%00:00 (00:00)
110 Puddle Nov 9, 2012 $7.99N/A (N/A)100,000 .. 200,0000%00:00 (00:00)
111 BIT.TRIP VOID Dec 19, 2012 $9.99N/A (N/A)20,000 .. 50,00016.67%00:31 (00:15)
112 Papo & Yo Apr 18, 2013 $14.99N/A (N/A/70%)200,000 .. 500,0000%00:00 (00:00)
113 Tales From Space: Mutant Blobs Attack Aug 15, 2012 $9.99N/A (N/A/83%)100,000 .. 200,0000%00:00 (00:00)
114 Dream Jul 31, 2015 $8.99N/A (N/A/59%)50,000 .. 100,0000%00:00 (00:00)
115 Unmechanical Aug 8, 2012 $9.99N/A (N/A/74%)100,000 .. 200,0000%00:00 (00:00)
116 Bad Hotel Oct 16, 2013 $4.99N/A (N/A)50,000 .. 100,0000%00:00 (00:00)
117 Sugar Cube: Bittersweet Factory Nov 7, 2012 $6.99N/A (N/A)20,000 .. 50,0000%00:00 (00:00)
118 Godus $14.99N/A (N/A)20,000 .. 50,0000%00:00 (00:00)
119 Party of Sin Dec 13, 2012 $5.99N/A (N/A)50,000 .. 100,0000%00:00 (00:00)
120 The Gleam: VR Escape the Room Oct 14, 2016 $3.99N/A (N/A)100,000 .. 200,0000%00:00 (00:00)
121 Witch It May 31, 2017 $14.99N/A (N/A)200,000 .. 500,0004.76%00:40 (00:13)
122 Please, Don't Touch Anything 3D Dec 7, 2016 $9.99N/A (N/A)20,000 .. 50,00033.33%01:13 (00:36)
123 Introvert Quest Mar 15, 2017 $0.49N/A (N/A)100,000 .. 200,0000%00:00 (00:00)
124 mr.President Prologue Episode Sep 20, 2016 $0.99N/A (N/A)50,000 .. 100,0000%00:00 (00:00)
125 Distant Space Dec 20, 2016 $0.99N/A (N/A)50,000 .. 100,0000%00:00 (00:00)
126 Academagia: The Making of Mages Aug 13, 2010 $7.99N/A (N/A)0 .. 20,0000%00:00 (00:00)
127 Child Phobia: Nightcoming Fears Dec 20, 2016 $1.99N/A (N/A)20,000 .. 50,0000%00:00 (00:00)
128 BoomTown! Deluxe Oct 14, 2016 $1.99N/A (N/A)20,000 .. 50,0000%00:00 (00:00)
129 GORN Jul 18, 2019 $19.99N/A (N/A/85%)200,000 .. 500,0000%00:00 (00:00)
130 Pixel Gladiator Sep 8, 2017 $4.99N/A (N/A)20,000 .. 50,0000%00:00 (00:00)
131 Guns of Icarus Alliance Mar 31, 2017 $4.99N/A (N/A)50,000 .. 100,0000%00:00 (00:00)
132 Snake Pass Mar 28, 2017 $19.99N/A (N/A/71%)100,000 .. 200,0000%00:00 (00:00)
133 The Archotek Project Apr 28, 2017 $4.99N/A (N/A)50,000 .. 100,0000%00:00 (00:00)
134 Wayout Nov 4, 2016 $0.49N/A (N/A)50,000 .. 100,0000%00:00 (00:00)
135 Zolg Dec 2, 2016 $0.99N/A (N/A)20,000 .. 50,0000%00:00 (00:00)
136 Glorkian Warrior: The Trials Of Glork Mar 24, 2015 $3.99N/A (N/A)20,000 .. 50,0000%00:00 (00:00)
137 Sky Mercenaries Dec 16, 2014 $9.99N/A (N/A)20,000 .. 50,0000%00:00 (00:00)
138 Countless Rooms of Death Jan 9, 2015 $0.99N/A (N/A)20,000 .. 50,0000%00:00 (00:00)
139 Chronicles of a Dark Lord: Episode 1 Tides of Fate Complete Dec 19, 2014 $0.99N/A (N/A)50,000 .. 100,0000%00:00 (00:00)
140 It came from space and ate our brains Mar 19, 2015 N/AN/A (N/A)20,000 .. 50,0000%00:00 (00:00)
141 Four Sided Fantasy Aug 30, 2016 $9.99N/A (N/A)0 .. 20,0000%00:00 (00:00)
142 The Cursed Forest Feb 26, 2019 $10.99N/A (N/A)0 .. 20,0000%00:00 (00:00)
143 Bermuda Mar 17, 2015 $2.99N/A (N/A)20,000 .. 50,0000%00:00 (00:00)
144 Starship Traveller Mar 11, 2015 $4.99N/A (N/A)0 .. 20,0000%00:00 (00:00)
145 Subsiege Sep 7, 2018 $19.99N/A (N/A)20,000 .. 50,0000%00:00 (00:00)
146 Reflections Jun 26, 2015 $9.99N/A (N/A)0 .. 20,0000%00:00 (00:00)
147 TIMEframe Jul 7, 2015 $5.99N/A (N/A)50,000 .. 100,0000%00:00 (00:00)
148 Porcunipine May 21, 2015 $9.99N/A (N/A)0 .. 20,0000%00:00 (00:00)
149 Tomb of Tyrants Jun 25, 2015 $7.99N/A (N/A)20,000 .. 50,0000%00:00 (00:00)
150 Star Horizon May 28, 2015 $4.99N/A (N/A)20,000 .. 50,0000%00:00 (00:00)
151 On A Roll 3D Feb 12, 2015 $3.99N/A (N/A)50,000 .. 100,0000%00:00 (00:00)
152 Dwarf Tower Dec 23, 2014 $0.99N/A (N/A)20,000 .. 50,0000%00:00 (00:00)
153 Bunker - The Underground Game May 21, 2015 $3.99N/A (N/A/70%)0 .. 20,0000%00:00 (00:00)
154 Polyball Dec 1, 2017 $14.99N/A (N/A)0 .. 20,0000%00:00 (00:00)
155 NEO AQUARIUM - The King of Crustaceans - Jun 8, 2015 $8.99N/A (N/A)20,000 .. 50,0000%00:00 (00:00)
156 Mysterious Space May 15, 2015 $10N/A (N/A)0 .. 20,0000%00:00 (00:00)
157 Centauri Sector Jun 23, 2015 $4.99N/A (N/A)20,000 .. 50,0000%00:00 (00:00)
158 Monument Jun 5, 2015 $3.99N/A (N/A)20,000 .. 50,0000%00:00 (00:00)
159 Home is Where One Starts... May 12, 2015 $2.99N/A (N/A)20,000 .. 50,0000%00:00 (00:00)
160 Western Press Apr 21, 2016 $0.99N/A (N/A)20,000 .. 50,0000%00:00 (00:00)
161 Beyond Eyes Aug 11, 2015 $14.99N/A (N/A/60%)100,000 .. 200,0000%00:00 (00:00)
162 Sky Rogue Aug 24, 2017 $19.99N/A (N/A)0 .. 20,0000%00:00 (00:00)
163 Gryphon Knight Epic Aug 20, 2015 $6.99N/A (N/A/55%)20,000 .. 50,0000%00:00 (00:00)
164 Action Alien Jun 26, 2015 $3.99N/A (N/A)50,000 .. 100,0000%00:00 (00:00)
165 Spellsworn Mar 13, 2018 FreeN/A (N/A)200,000 .. 500,0000%00:00 (00:00)
166 8Bit Fiesta - Party Game Sep 30, 2016 FreeN/A (N/A)0 .. 20,0000%00:00 (00:00)
167 Luna Sky Oct 2, 2015 $12.99N/A (N/A)50,000 .. 100,0000%00:00 (00:00)
168 Dead In Bermuda Aug 27, 2015 $14.99N/A (N/A)20,000 .. 50,0000%00:00 (00:00)
169 Interstellar Rift Jun 23, 2015 $18.99N/A (N/A)20,000 .. 50,0000%00:00 (00:00)
170 Maia Nov 23, 2018 $24.99N/A (N/A)50,000 .. 100,0000%00:00 (00:00)
171 Element4l May 24, 2013 $8.99N/A (N/A/77%)50,000 .. 100,0000%00:00 (00:00)
172 FOTONICA Nov 6, 2014 $14.99N/A (N/A/71%)50,000 .. 100,0000%00:00 (00:00)
173 Super Puzzle Platformer Deluxe May 24, 2013 $7.99N/A (N/A)50,000 .. 100,0000%00:00 (00:00)
174 Gentlemen! Nov 5, 2013 $4.99N/A (N/A)20,000 .. 50,0000%00:00 (00:00)
175 Poöf Nov 8, 2013 $6.99N/A (N/A)20,000 .. 50,0000%00:00 (00:00)
176 Escape Goat 2 Mar 24, 2014 $9.99N/A (N/A/76%)50,000 .. 100,0000%00:00 (00:00)
177 The Novelist Dec 10, 2013 $4.99N/A (N/A/66%)100,000 .. 200,0000%00:00 (00:00)
178 Survivor Squad Nov 8, 2013 $2.99N/A (N/A)100,000 .. 200,0000%00:00 (00:00)
179 Knytt Underground Oct 25, 2013 $6.99N/A (N/A)50,000 .. 100,0000%00:00 (00:00)
180 Montague's Mount Nov 19, 2013 $4.99N/A (N/A/39%)20,000 .. 50,0000%00:00 (00:00)
181 Escape Goat Oct 9, 2013 $4.99N/A (N/A)20,000 .. 50,0000%00:00 (00:00)
182 Ballpoint Universe - Infinite Dec 17, 2013 $3.99N/A (N/A)100,000 .. 200,0000%00:00 (00:00)
183 Constant C Mar 11, 2014 $9.99N/A (N/A/60%)20,000 .. 50,0000%00:00 (00:00)
184 Journal Feb 17, 2014 $9.99N/A (N/A/59%)20,000 .. 50,0000%00:00 (00:00)
185 Solar Flux Oct 24, 2013 $9.99N/A (N/A)100,000 .. 200,0000%00:00 (00:00)
186 Wake $4.99N/A (N/A)0 .. 20,0000%00:00 (00:00)

Tags over time:

Access restricted.

This feature is only available to users with special access rights. Sorry.

If you want to proceed, you need to register or log in first and then back Steam Spy on Patreon. Look for Indie or Pro pledge.

Don't forget to use the same email as on Steam Spy!

Owners of this game also own:

Access restricted.

This feature is only available to users with special access rights. Sorry.

If you want to proceed, you need to register or log in first and then back Steam Spy on Patreon. Look for Indie or Pro pledge.

Don't forget to use the same email as on Steam Spy!

Playtime distribution:

Access restricted.

This feature is only available to users with special access rights. Sorry.

If you want to proceed, you need to register or log in first and then back Steam Spy on Patreon. Look for Indie or Pro pledge.

Don't forget to use the same email as on Steam Spy!

Playtime (2 weeks):

Access restricted.

This feature is only available to users with special access rights. Sorry.

If you want to proceed, you need to register or log in first and then back Steam Spy on Patreon. Look for Indie or Pro pledge.

Don't forget to use the same email as on Steam Spy!

User reviews:

Login required.

Please register or log in to see this information.